| time (UTC) | temp C | wind direction | speed KPH | gust KPH | rain 1hr cm | rain 24hr cm | rain mn cm | humidity % | barometer mb |
| 20260906154557 | 16 | 213 | 4.8 | 9.7 | 0.00 | 0.00 | 0.00 | 77 | 1030.9 |
| 20260906153100 | 16 | 255 | 6.4 | 14.5 | 0.00 | 0.00 | 0.00 | 76 | 1030.5 |
| 20260906151602 | 16 | 292 | 4.8 | 9.7 | 0.00 | 0.00 | 0.00 | 76 | 1030.5 |
| 20260906150052 | 16 | 216 | 3.2 | 8.0 | 0.00 | 0.00 | 0.00 | 77 | 1030.4 |
| 20260906144548 | 16 | 265 | 4.8 | 9.7 | 0.00 | 0.00 | 0.00 | 76 | 1030.4 |
| 20260906143106 | 16 | 238 | 4.8 | 8.0 | 0.00 | 0.00 | 0.00 | 76 | 1030.5 |
| 20260906141557 | 16 | 47 | 0.0 | 4.8 | 0.00 | 0.00 | 0.00 | 76 | 1030.4 |
| 20260906140054 | 16 | 178 | 0.0 | 4.8 | 0.00 | 0.00 | 0.00 | 77 | 1030.4 |
| 20260906134552 | 16 | 232 | 0.0 | 3.2 | 0.00 | 0.00 | 0.00 | 79 | 1030.3 |
| 20260906133050 | 16 | 0 | 0.0 | 4.8 | 0.00 | 0.00 | 0.00 | 79 | 1030.4 |
| 20260906131554 | 15 | 0 | 0.0 | 3.2 | 0.00 | 0.00 | 0.00 | 77 | 1030.4 |
| 20260906130051 | 15 | 227 | 4.8 | 9.7 | 0.00 | 0.00 | 0.00 | 78 | 1030.4 |
| 20260906124549 | 15 | 216 | 1.6 | 3.2 | 0.00 | 0.00 | 0.00 | 78 | 1030.5 |
| 20260906123048 | 15 | 186 | 0.0 | 11.3 | 0.00 | 0.00 | 0.00 | 78 | 1030.6 |
| 20260906121552 | 15 | 203 | 4.8 | 12.9 | 0.00 | 0.00 | 0.00 | 78 | 1030.8 |
| 20260906120052 | 15 | 179 | 6.4 | 16.1 | 0.00 | 0.00 | 0.00 | 78 | 1030.9 |
| 20260906114551 | 15 | 164 | 8.0 | 16.1 | 0.00 | 0.00 | 0.00 | 80 | 1031.0 |
| 20260906113058 | 15 | 188 | 11.3 | 25.7 | 0.00 | 0.00 | 0.00 | 79 | 1031.2 |
| 20260906111552 | 16 | 200 | 4.8 | 11.3 | 0.00 | 0.00 | 0.00 | 73 | 1031.2 |
| 20260906110051 | 16 | 158 | 0.0 | 6.4 | 0.00 | 0.00 | 0.00 | 73 | 1031.4 |
| 20260906104548 | 16 | 146 | 0.0 | 8.0 | 0.00 | 0.00 | 0.00 | 74 | 1031.6 |
| 20260906103046 | 15 | 254 | 1.6 | 8.0 | 0.00 | 0.00 | 0.00 | 76 | 1031.7 |
| 20260906101554 | 15 | 194 | 3.2 | 6.4 | 0.00 | 0.00 | 0.00 | 77 | 1031.9 |
| 20260906100051 | 15 | 261 | 1.6 | 6.4 | 0.00 | 0.00 | 0.00 | 75 | 1032.2 |
| 20260906094546 | 15 | 167 | 0.0 | 9.7 | 0.00 | 0.00 | 0.00 | 75 | 1032.3 |
| 20260906093046 | 15 | 219 | 3.2 | 11.3 | 0.00 | 0.00 | 0.00 | 75 | 1032.3 |
| 20260906091557 | 15 | 205 | 1.6 | 8.0 | 0.00 | 0.00 | 0.00 | 76 | 1032.4 |
| 20260906090057 | 15 | 221 | 3.2 | 8.0 | 0.00 | 0.00 | 0.00 | 78 | 1032.6 |
| 20260906084544 | 14 | 193 | 1.6 | 6.4 | 0.00 | 0.00 | 0.00 | 79 | 1033.0 |
| 20260906083056 | 14 | 67 | 3.2 | 11.3 | 0.00 | 0.00 | 0.00 | 79 | 1033.0 |
| 20260906081551 | 14 | 246 | 1.6 | 8.0 | 0.00 | 0.00 | 0.00 | 81 | 1032.9 |
| 20260906080051 | 13 | 158 | 3.2 | 9.7 | 0.00 | 0.00 | 0.00 | 81 | 1033.1 |
| 20260906074546 | 13 | 157 | 3.2 | 11.3 | 0.00 | 0.00 | 0.00 | 84 | 1033.1 |
| 20260906073046 | 13 | 213 | 3.2 | 8.0 | 0.00 | 0.00 | 0.00 | 84 | 1033.2 |
| 20260906071556 | 12 | 185 | 3.2 | 6.4 | 0.00 | 0.00 | 0.00 | 85 | 1033.1 |
| 20260906070054 | 12 | 216 | 3.2 | 9.7 | 0.00 | 0.00 | 0.00 | 85 | 1033.1 |
| 20260906064548 | 12 | 215 | 3.2 | 6.4 | 0.00 | 0.00 | 0.00 | 87 | 1033.0 |
| 20260906063101 | 12 | 221 | 3.2 | 8.0 | 0.00 | 0.00 | 0.00 | 87 | 1033.0 |
| 20260906061556 | 12 | 213 | 4.8 | 8.0 | 0.00 | 0.00 | 0.00 | 87 | 1032.8 |
| 20260906060055 | 11 | 188 | 3.2 | 8.0 | 0.00 | 0.00 | 0.00 | 88 | 1032.7 |
| 20260906054558 | 11 | 192 | 4.8 | 11.3 | 0.00 | 0.00 | 0.00 | 89 | 1032.3 |
| 20260906053058 | 11 | 214 | 4.8 | 12.9 | 0.00 | 0.00 | 0.00 | 89 | 1032.3 |
| 20260906051555 | 11 | 210 | 3.2 | 6.4 | 0.00 | 0.00 | 0.00 | 89 | 1032.1 |
| 20260906050113 | 11 | 205 | 4.8 | 9.7 | 0.00 | 0.00 | 0.00 | 89 | 1032.1 |
| 20260906044553 | 11 | 206 | 3.2 | 8.0 | 0.00 | 0.00 | 0.00 | 90 | 1032.1 |
| 20260906043107 | 11 | 191 | 3.2 | 6.4 | 0.00 | 0.00 | 0.00 | 90 | 1032.0 |
| 20260906041552 | 11 | 205 | 3.2 | 12.9 | 0.00 | 0.00 | 0.00 | 90 | 1031.9 |
| 20260906040107 | 11 | 230 | 3.2 | 11.3 | 0.00 | 0.00 | 0.00 | 90 | 1031.7 |
| 20260906034559 | 11 | 198 | 3.2 | 8.0 | 0.00 | 0.00 | 0.00 | 90 | 1031.7 |
| 20260906033058 | 11 | 194 | 1.6 | 6.4 | 0.00 | 0.00 | 0.00 | 90 | 1031.6 |
| 20260906031555 | 11 | 194 | 4.8 | 9.7 | 0.00 | 0.00 | 0.00 | 88 | 1031.5 |
| 20260906030132 | 11 | 211 | 3.2 | 11.3 | 0.00 | 0.00 | 0.00 | 87 | 1031.2 |
| 20260906024557 | 11 | 207 | 3.2 | 6.4 | 0.00 | 0.00 | 0.00 | 87 | 1031.1 |
| 20260906023058 | 11 | 206 | 4.8 | 9.7 | 0.00 | 0.00 | 0.00 | 87 | 1030.8 |
| 20260906021610 | 11 | 205 | 3.2 | 9.7 | 0.00 | 0.00 | 0.00 | 86 | 1030.8 |
| 20260906020100 | 11 | 221 | 3.2 | 8.0 | 0.00 | 0.00 | 0.00 | 86 | 1030.9 |
| 20260906014552 | 11 | 219 | 4.8 | 11.3 | 0.00 | 0.00 | 0.00 | 86 | 1030.8 |
| 20260906013100 | 11 | 198 | 3.2 | 8.0 | 0.00 | 0.00 | 0.00 | 86 | 1030.8 |
| 20260906011605 | 11 | 238 | 3.2 | 9.7 | 0.00 | 0.00 | 0.00 | 87 | 1030.7 |
| 20260906010100 | 11 | 218 | 4.8 | 9.7 | 0.00 | 0.00 | 0.00 | 88 | 1030.8 |
| 20260906004556 | 11 | 186 | 4.8 | 9.7 | 0.00 | 0.00 | 0.00 | 89 | 1030.6 |
| 20260906003108 | 12 | 212 | 4.8 | 11.3 | 0.00 | 0.00 | 0.00 | 88 | 1030.6 |
| 20260906001547 | 12 | 194 | 6.4 | 11.3 | 0.00 | 0.00 | 0.00 | 88 | 1030.7 |
| 20260906000057 | 12 | 234 | 4.8 | 9.7 | 0.00 | 0.00 | 0.00 | 88 | 1030.6 |
| 20260905234603 | 12 | 196 | 3.2 | 8.0 | 0.00 | 0.00 | 0.00 | 89 | 1030.9 |
| 20260905233049 | 12 | 196 | 3.2 | 8.0 | 0.00 | 0.00 | 0.00 | 89 | 1030.7 |
| 20260905231557 | 12 | 195 | 3.2 | 8.0 | 0.00 | 0.00 | 0.00 | 89 | 1030.8 |
| 20260905230058 | 12 | 184 | 1.6 | 8.0 | 0.00 | 0.00 | 0.00 | 89 | 1030.8 |
| 20260905224548 | 12 | 190 | 4.8 | 9.7 | 0.00 | 0.00 | 0.00 | 88 | 1030.8 |
| 20260905223057 | 12 | 175 | 4.8 | 11.3 | 0.00 | 0.00 | 0.00 | 88 | 1030.7 |
| 20260905221550 | 12 | 194 | 6.4 | 11.3 | 0.00 | 0.00 | 0.00 | 88 | 1030.7 |
| 20260905220052 | 12 | 192 | 3.2 | 8.0 | 0.00 | 0.00 | 0.00 | 86 | 1030.8 |
| 20260905214606 | 12 | 207 | 3.2 | 9.7 | 0.00 | 0.00 | 0.00 | 86 | 1030.5 |
| 20260905213103 | 12 | 217 | 1.6 | 8.0 | 0.00 | 0.00 | 0.00 | 86 | 1030.5 |
| 20260905211554 | 12 | 232 | 4.8 | 11.3 | 0.00 | 0.00 | 0.00 | 87 | 1030.3 |
| 20260905210052 | 12 | 192 | 3.2 | 11.3 | 0.00 | 0.00 | 0.00 | 87 | 1030.5 |
| 20260905204545 | 12 | 202 | 4.8 | 11.3 | 0.00 | 0.00 | 0.00 | 86 | 1030.7 |
| 20260905203055 | 12 | 150 | 3.2 | 8.0 | 0.00 | 0.00 | 0.00 | 86 | 1030.8 |
| 20260905201550 | 12 | 201 | 3.2 | 8.0 | 0.00 | 0.00 | 0.00 | 86 | 1030.9 |
| 20260905200054 | 12 | 194 | 4.8 | 9.7 | 0.00 | 0.00 | 0.00 | 86 | 1031.0 |
| 20260905194559 | 12 | 228 | 3.2 | 14.5 | 0.00 | 0.00 | 0.00 | 85 | 1030.9 |
| 20260905193054 | 12 | 227 | 3.2 | 11.3 | 0.00 | 0.00 | 0.00 | 85 | 1030.8 |
| 20260905191556 | 12 | 225 | 4.8 | 11.3 | 0.00 | 0.00 | 0.00 | 85 | 1030.9 |
| 20260905190051 | 12 | 245 | 4.8 | 14.5 | 0.00 | 0.00 | 0.00 | 85 | 1030.7 |
| 20260905184603 | 12 | 213 | 8.0 | 17.7 | 0.00 | 0.00 | 0.00 | 84 | 1030.4 |
| 20260905183100 | 12 | 239 | 6.4 | 14.5 | 0.00 | 0.00 | 0.00 | 84 | 1030.3 |
| 20260905181552 | 13 | 229 | 4.8 | 14.5 | 0.00 | 0.00 | 0.00 | 83 | 1030.4 |
| 20260905180051 | 13 | 214 | 4.8 | 11.3 | 0.00 | 0.00 | 0.00 | 81 | 1030.3 |
| 20260905174550 | 13 | 193 | 3.2 | 6.4 | 0.00 | 0.00 | 0.00 | 80 | 1030.5 |
| 20260905173108 | 13 | 218 | 1.6 | 6.4 | 0.00 | 0.00 | 0.00 | 79 | 1030.0 |
| 20260905171553 | 13 | 223 | 3.2 | 8.0 | 0.00 | 0.00 | 0.00 | 77 | 1030.0 |
| 20260905170050 | 14 | 236 | 3.2 | 8.0 | 0.00 | 0.00 | 0.00 | 76 | 1029.9 |
| 20260905164548 | 14 | 217 | 1.6 | 6.4 | 0.00 | 0.00 | 0.00 | 75 | 1029.6 |
| 20260905163100 | 15 | 248 | 4.8 | 9.7 | 0.00 | 0.00 | 0.00 | 73 | 1029.6 |
| 20260905161551 | 15 | 222 | 4.8 | 9.7 | 0.00 | 0.00 | 0.00 | 73 | 1029.6 |
| 20260905160100 | 15 | 0 | 0.0 | 3.2 | 0.00 | 0.00 | 0.00 | 74 | 1029.4 |